createdAt,value
2022-10-11T00:01:20.541Z,15.70
2022-10-11T00:03:47.184Z,15.70
2022-10-11T00:06:13.829Z,15.60
2022-10-11T00:08:40.423Z,15.80
2022-10-11T00:11:08.135Z,15.80
2022-10-11T00:13:35.238Z,15.80
2022-10-11T00:16:08.771Z,15.70
2022-10-11T00:18:36.351Z,15.70
2022-10-11T00:21:06.290Z,15.70
2022-10-11T00:23:33.121Z,15.70
2022-10-11T00:26:02.106Z,15.60
2022-10-11T00:28:29.160Z,15.60
2022-10-11T00:30:55.775Z,15.60
2022-10-11T00:33:22.374Z,15.60
2022-10-11T00:35:49.307Z,15.60
2022-10-11T00:38:16.691Z,15.60
2022-10-11T00:40:43.972Z,15.60
2022-10-11T00:43:17.504Z,15.50
2022-10-11T00:45:55.791Z,15.50
2022-10-11T00:48:44.430Z,15.50
2022-10-11T00:51:20.558Z,15.60
2022-10-11T00:53:50.131Z,15.50
2022-10-11T00:56:38.901Z,15.40
2022-10-11T00:59:12.261Z,15.50
2022-10-11T01:01:38.952Z,15.40
2022-10-11T01:04:06.026Z,15.40
2022-10-11T01:06:34.132Z,15.40
2022-10-11T01:09:00.769Z,15.40
2022-10-11T01:11:29.811Z,15.40
2022-10-11T01:14:22.414Z,15.30
2022-10-11T01:17:10.688Z,15.30
2022-10-11T01:20:19.225Z,15.20
2022-10-11T01:22:48.746Z,15.20
2022-10-11T01:25:26.858Z,15.20
2022-10-11T01:28:31.256Z,15.20
2022-10-11T01:31:03.485Z,15.30
2022-10-11T01:34:01.859Z,15.40
2022-10-11T01:36:42.628Z,15.40
2022-10-11T01:39:14.642Z,15.50
2022-10-11T01:41:47.059Z,15.50
2022-10-11T01:44:14.444Z,15.50
2022-10-11T01:46:41.275Z,15.40
2022-10-11T01:49:08.430Z,15.40
2022-10-11T01:51:45.218Z,15.40
2022-10-11T01:55:03.865Z,15.30
2022-10-11T01:57:41.648Z,15.30
2022-10-11T02:00:20.415Z,15.30
2022-10-11T02:02:52.821Z,15.20
2022-10-11T02:05:24.293Z,15.30
2022-10-11T02:08:06.483Z,15.30
2022-10-11T02:10:39.836Z,15.30
2022-10-11T02:13:12.720Z,15.30
2022-10-11T02:15:41.614Z,15.30
2022-10-11T02:18:13.471Z,15.40
2022-10-11T02:20:42.371Z,15.50
2022-10-11T02:23:20.746Z,15.60
2022-10-11T02:25:48.338Z,15.50
2022-10-11T02:28:20.579Z,15.50
2022-10-11T02:30:48.898Z,15.40
2022-10-11T02:33:20.207Z,15.40
2022-10-11T02:35:51.124Z,15.30
2022-10-11T02:38:23.228Z,15.30
2022-10-11T02:40:58.047Z,15.20
2022-10-11T02:43:41.466Z,15.20
2022-10-11T02:46:09.543Z,15.20
2022-10-11T02:48:37.344Z,15.20
2022-10-11T02:51:04.254Z,15.10
2022-10-11T02:53:31.154Z,15.20
2022-10-11T02:55:57.733Z,15.10
2022-10-11T02:58:24.797Z,15.20
2022-10-11T03:00:51.671Z,15.20
2022-10-11T03:03:18.320Z,15.20
2022-10-11T03:05:44.919Z,15.10
2022-10-11T03:08:14.158Z,15.10
2022-10-11T03:10:41.535Z,15.20
2022-10-11T03:13:08.403Z,15.10
2022-10-11T03:15:35.571Z,15.00
2022-10-11T03:18:02.164Z,15.10
2022-10-11T03:20:28.734Z,15.10
2022-10-11T03:22:55.589Z,15.10
2022-10-11T03:25:22.167Z,15.10
2022-10-11T03:27:48.946Z,15.10
2022-10-11T03:30:18.288Z,15.10
2022-10-11T03:32:45.627Z,15.20
2022-10-11T03:35:12.211Z,15.20
2022-10-11T03:37:38.797Z,15.20
2022-10-11T03:40:06.452Z,15.30
2022-10-11T03:42:33.110Z,15.30
2022-10-11T03:45:01.650Z,15.40
2022-10-11T03:47:28.245Z,15.40
2022-10-11T03:49:54.810Z,15.50
2022-10-11T03:52:21.425Z,15.30
2022-10-11T03:54:48.174Z,15.20
2022-10-11T03:57:14.856Z,15.20
2022-10-11T03:59:41.511Z,15.30
2022-10-11T04:02:08.169Z,15.30
2022-10-11T04:04:34.892Z,15.30
2022-10-11T04:07:01.455Z,15.10
2022-10-11T04:09:28.207Z,15.10
2022-10-11T04:11:54.763Z,15.10
2022-10-11T04:14:21.324Z,15.10
2022-10-11T04:16:47.931Z,15.10
2022-10-11T04:19:14.595Z,15.10
2022-10-11T04:21:41.194Z,15.00
2022-10-11T04:24:09.317Z,15.00
2022-10-11T04:26:35.884Z,15.00
2022-10-11T04:29:02.521Z,14.90
2022-10-11T04:31:29.088Z,14.90
2022-10-11T04:33:56.947Z,15.10
2022-10-11T04:36:24.106Z,15.10
2022-10-11T04:38:50.696Z,15.00
2022-10-11T04:41:17.484Z,15.10
2022-10-11T04:43:44.062Z,15.10
2022-10-11T04:46:11.536Z,15.20
2022-10-11T04:48:38.496Z,15.20
2022-10-11T04:51:05.971Z,15.20
2022-10-11T04:53:32.587Z,15.20
2022-10-11T04:56:01.861Z,15.20
2022-10-11T04:58:30.437Z,15.10
2022-10-11T05:00:57.671Z,15.00
2022-10-11T05:03:24.860Z,15.00
2022-10-11T05:05:52.933Z,15.00
2022-10-11T05:08:20.595Z,15.00
2022-10-11T05:10:57.996Z,15.00
2022-10-11T05:13:25.393Z,14.90
2022-10-11T05:15:52.303Z,14.90
2022-10-11T05:18:19.665Z,14.90
2022-10-11T05:20:46.436Z,15.00
2022-10-11T05:23:13.413Z,14.90
2022-10-11T05:25:40.506Z,14.90
2022-10-11T05:28:07.250Z,15.00
2022-10-11T05:30:33.956Z,14.90
2022-10-11T05:33:00.736Z,15.00
2022-10-11T05:35:27.304Z,15.00
2022-10-11T05:37:53.855Z,15.00
2022-10-11T05:40:20.413Z,15.00
2022-10-11T05:42:47.014Z,14.90
2022-10-11T05:45:13.617Z,14.90
2022-10-11T05:47:40.210Z,14.90
2022-10-11T05:50:07.163Z,14.90
2022-10-11T05:52:33.783Z,14.90
2022-10-11T05:55:00.376Z,15.00
2022-10-11T05:57:27.133Z,15.00
2022-10-11T05:59:53.703Z,15.00
2022-10-11T06:02:20.301Z,14.80
2022-10-11T06:04:46.960Z,14.90
2022-10-11T06:07:13.604Z,14.80
2022-10-11T06:09:40.156Z,14.90
2022-10-11T06:12:06.781Z,14.90
2022-10-11T06:14:33.540Z,14.90
2022-10-11T06:17:00.152Z,14.90
2022-10-11T06:19:26.772Z,14.90
2022-10-11T06:21:53.393Z,14.90
2022-10-11T06:24:19.995Z,15.00
2022-10-11T06:26:48.936Z,14.90
2022-10-11T06:29:15.639Z,14.90
2022-10-11T06:31:42.366Z,14.90
2022-10-11T06:34:09.392Z,15.00
2022-10-11T06:36:35.976Z,15.00
2022-10-11T06:39:02.949Z,15.10
2022-10-11T06:41:30.611Z,15.00
2022-10-11T06:43:57.506Z,14.90
2022-10-11T06:46:27.200Z,15.00
2022-10-11T06:48:56.228Z,15.00
2022-10-11T06:51:23.878Z,15.00
2022-10-11T06:53:52.185Z,15.00
2022-10-11T06:56:19.728Z,15.10
2022-10-11T06:58:46.656Z,15.10
2022-10-11T07:01:18.490Z,15.20
2022-10-11T07:03:45.827Z,15.20
2022-10-11T07:06:15.672Z,15.20
2022-10-11T07:08:42.607Z,15.20
2022-10-11T07:11:12.204Z,15.20
2022-10-11T07:13:39.565Z,15.20
2022-10-11T07:16:10.007Z,15.10
2022-10-11T07:18:37.224Z,15.20
2022-10-11T07:21:10.445Z,15.20
2022-10-11T07:23:37.561Z,15.20
2022-10-11T07:26:05.587Z,15.10
2022-10-11T07:28:33.474Z,15.10
2022-10-11T07:31:07.734Z,15.10
2022-10-11T07:33:34.411Z,15.20
2022-10-11T07:36:01.693Z,15.20
2022-10-11T07:38:28.468Z,15.20
2022-10-11T07:40:55.056Z,15.00
2022-10-11T07:43:21.684Z,14.90
2022-10-11T07:45:52.937Z,15.00
2022-10-11T07:48:20.286Z,14.90
2022-10-11T07:50:47.060Z,14.80
2022-10-11T07:53:13.714Z,14.90
2022-10-11T07:55:40.403Z,14.90
2022-10-11T07:58:08.465Z,14.90
2022-10-11T08:00:35.202Z,15.10
2022-10-11T08:03:06.119Z,15.20
2022-10-11T08:05:33.438Z,15.40
2022-10-11T08:08:00.374Z,15.50
2022-10-11T08:10:45.828Z,15.60
2022-10-11T08:13:12.555Z,15.60
2022-10-11T08:15:39.162Z,15.60
2022-10-11T08:18:05.781Z,15.60
2022-10-11T08:20:33.079Z,15.70
2022-10-11T08:22:59.816Z,15.70
2022-10-11T08:25:26.603Z,15.80
2022-10-11T08:27:53.167Z,15.70
2022-10-11T08:30:19.741Z,15.80
2022-10-11T08:32:46.353Z,15.70
2022-10-11T08:35:12.937Z,15.80
2022-10-11T08:37:39.552Z,15.80
2022-10-11T08:40:06.823Z,15.90
2022-10-11T08:42:50.215Z,15.80
2022-10-11T08:45:32.287Z,15.90
2022-10-11T08:48:42.120Z,15.90
2022-10-11T08:51:32.148Z,15.80
2022-10-11T08:54:12.439Z,15.90
2022-10-11T08:56:41.803Z,15.80
2022-10-11T08:59:11.540Z,15.60
2022-10-11T09:01:47.396Z,15.60
2022-10-11T09:04:15.929Z,15.60
2022-10-11T09:06:54.596Z,15.60
2022-10-11T09:09:52.780Z,15.70
2022-10-11T09:12:45.416Z,15.80
2022-10-11T09:15:24.333Z,15.90
2022-10-11T09:18:24.448Z,15.80
2022-10-11T09:21:08.251Z,15.90
2022-10-11T09:23:42.837Z,15.90
2022-10-11T09:26:35.136Z,16.10
2022-10-11T09:29:17.547Z,16.10
2022-10-11T09:31:51.734Z,16.10
2022-10-11T09:34:19.297Z,16.00
2022-10-11T09:37:17.962Z,16.20
2022-10-11T09:40:02.257Z,16.20
2022-10-11T09:42:28.862Z,16.20
2022-10-11T09:44:57.292Z,16.20
2022-10-11T09:47:29.238Z,16.20
2022-10-11T09:50:04.111Z,16.20
2022-10-11T09:52:31.003Z,16.20
2022-10-11T09:55:00.579Z,16.20
2022-10-11T09:57:33.151Z,16.30
2022-10-11T10:00:19.369Z,16.40
2022-10-11T10:02:51.909Z,16.40
2022-10-11T10:05:28.768Z,16.40
2022-10-11T10:08:10.523Z,16.40
2022-10-11T10:10:42.952Z,16.40
2022-10-11T10:13:26.767Z,16.50
2022-10-11T10:15:56.611Z,16.70
2022-10-11T10:18:29.737Z,16.70
2022-10-11T10:20:59.579Z,16.80
2022-10-11T10:23:35.009Z,16.80
2022-10-11T10:26:20.725Z,16.80
2022-10-11T10:29:16.067Z,16.70
2022-10-11T10:32:12.845Z,16.70
2022-10-11T10:34:38.237Z,16.70
2022-10-11T10:37:29.429Z,16.80
2022-10-11T10:40:09.115Z,16.80
2022-10-11T10:42:36.467Z,16.80
2022-10-11T10:45:07.311Z,16.80
2022-10-11T10:47:54.764Z,16.80
2022-10-11T10:50:40.985Z,16.80
2022-10-11T10:53:41.992Z,16.80
2022-10-11T10:56:17.985Z,16.90
2022-10-11T10:58:59.701Z,16.90
2022-10-11T11:01:32.025Z,16.90
2022-10-11T11:04:25.196Z,16.90
2022-10-11T11:07:22.058Z,16.90
2022-10-11T11:10:00.436Z,16.80
2022-10-11T11:12:26.957Z,16.80
2022-10-11T11:15:02.319Z,16.90
2022-10-11T11:17:53.958Z,16.90
2022-10-11T11:20:26.477Z,16.80
2022-10-11T11:23:17.234Z,16.80
2022-10-11T11:25:49.385Z,16.90
2022-10-11T11:28:37.750Z,16.90
2022-10-11T11:31:20.753Z,17.00
2022-10-11T11:34:07.892Z,17.00
2022-10-11T11:37:08.327Z,17.00
2022-10-11T11:39:44.833Z,17.00
2022-10-11T11:42:38.683Z,17.00
2022-10-11T11:45:22.776Z,16.90
2022-10-11T11:47:59.772Z,17.10
2022-10-11T11:50:34.536Z,16.90
2022-10-11T11:53:07.521Z,17.00
2022-10-11T11:55:55.300Z,17.00
2022-10-11T11:58:50.173Z,17.00
2022-10-11T12:01:49.636Z,17.00
2022-10-11T12:04:26.253Z,17.10
2022-10-11T12:07:23.376Z,17.00
2022-10-11T12:09:54.423Z,16.90
2022-10-11T12:12:37.212Z,16.90
2022-10-11T12:15:10.131Z,16.90
2022-10-11T12:17:57.945Z,17.00
2022-10-11T12:20:35.762Z,17.10
2022-10-11T12:23:22.777Z,17.00
2022-10-11T12:26:15.256Z,16.90
2022-10-11T12:28:48.489Z,17.00
2022-10-11T12:31:45.992Z,17.00
2022-10-11T12:34:17.905Z,16.90
2022-10-11T12:36:49.118Z,16.90
2022-10-11T12:39:18.568Z,16.90
2022-10-11T12:41:51.198Z,17.00
2022-10-11T12:44:28.633Z,17.00
2022-10-11T12:46:55.177Z,17.00
2022-10-11T12:49:45.979Z,16.90
2022-10-11T12:52:32.389Z,16.90
2022-10-11T12:55:28.899Z,16.90
2022-10-11T12:58:12.184Z,16.90
2022-10-11T13:00:51.035Z,17.00
2022-10-11T13:03:32.514Z,17.00
2022-10-11T13:06:02.030Z,17.00
2022-10-11T13:08:37.478Z,17.00
2022-10-11T13:11:16.634Z,17.10
2022-10-11T13:13:49.288Z,17.20
2022-10-11T13:16:19.230Z,17.20
2022-10-11T13:18:48.666Z,17.30
2022-10-11T13:21:26.832Z,17.40
2022-10-11T13:24:03.677Z,17.50
2022-10-11T13:26:31.928Z,17.60
2022-10-11T13:29:00.256Z,17.60
2022-10-11T13:31:27.753Z,17.70
2022-10-11T13:33:56.522Z,17.70
2022-10-11T13:36:26.693Z,17.70
2022-10-11T13:38:59.554Z,17.70
2022-10-11T13:41:29.037Z,17.70
2022-10-11T13:43:58.163Z,17.80
2022-10-11T13:46:28.130Z,17.80
2022-10-11T13:49:03.248Z,17.80
2022-10-11T13:51:33.898Z,17.90
2022-10-11T13:54:02.026Z,17.90
2022-10-11T13:56:32.706Z,17.90
2022-10-11T13:59:01.016Z,17.90
2022-10-11T14:01:40.273Z,17.90
2022-10-11T14:04:12.167Z,18.10
2022-10-11T14:06:58.076Z,18.10
2022-10-11T14:09:32.157Z,18.10
2022-10-11T14:12:29.495Z,18.00
2022-10-11T14:14:57.313Z,18.00
2022-10-11T14:17:44.529Z,17.90
2022-10-11T14:20:11.841Z,17.80
2022-10-11T14:22:39.041Z,17.80
2022-10-11T14:25:05.996Z,17.80
2022-10-11T14:27:32.783Z,17.70
2022-10-11T14:30:24.628Z,17.60
2022-10-11T14:32:48.955Z,17.60
2022-10-11T14:35:18.119Z,17.60
2022-10-11T14:37:45.127Z,17.60
2022-10-11T14:40:21.266Z,17.60
2022-10-11T14:42:47.989Z,17.60
2022-10-11T14:45:14.889Z,17.60
2022-10-11T14:47:43.118Z,17.50
2022-10-11T14:50:31.396Z,17.40
2022-10-11T14:52:58.545Z,17.40
2022-10-11T14:55:25.386Z,17.40
2022-10-11T14:57:52.295Z,17.40
2022-10-11T15:00:22.725Z,17.50
2022-10-11T15:02:52.683Z,17.40
2022-10-11T15:05:20.217Z,17.40
2022-10-11T15:07:47.361Z,17.40
2022-10-11T15:10:18.917Z,17.40
2022-10-11T15:12:46.106Z,17.40
2022-10-11T15:15:19.389Z,17.30
2022-10-11T15:17:48.076Z,17.40
2022-10-11T15:20:28.389Z,17.40
2022-10-11T15:22:56.106Z,17.40
2022-10-11T15:25:23.873Z,17.40
2022-10-11T15:27:51.594Z,17.30
2022-10-11T15:30:25.390Z,17.40
2022-10-11T15:32:52.828Z,17.30
2022-10-11T15:35:20.619Z,17.40
2022-10-11T15:37:47.284Z,17.40
2022-10-11T15:40:15.655Z,17.30
2022-10-11T15:42:42.358Z,17.30
2022-10-11T15:45:09.465Z,17.30
2022-10-11T15:47:36.265Z,17.30
2022-10-11T15:50:03.403Z,17.40
2022-10-11T15:52:30.190Z,17.30
2022-10-11T15:54:56.776Z,17.30
2022-10-11T15:57:23.381Z,17.30
2022-10-11T15:59:49.999Z,17.30
2022-10-11T16:02:16.596Z,17.30
2022-10-11T16:04:44.101Z,17.40
2022-10-11T16:07:10.736Z,17.40
2022-10-11T16:09:37.339Z,17.30
2022-10-11T16:12:04.196Z,17.30
2022-10-11T16:14:30.764Z,17.30
2022-10-11T16:17:00.109Z,17.30
2022-10-11T16:19:26.725Z,17.40
2022-10-11T16:21:53.411Z,17.30
2022-10-11T16:24:20.222Z,17.30
2022-10-11T16:26:47.087Z,17.30
2022-10-11T16:29:13.890Z,17.30
2022-10-11T16:31:40.568Z,17.30
2022-10-11T16:34:07.175Z,17.30
2022-10-11T16:36:40.364Z,17.40
2022-10-11T16:39:12.206Z,17.40
2022-10-11T16:41:38.896Z,17.40
2022-10-11T16:44:06.038Z,17.40
2022-10-11T16:46:33.454Z,17.30
2022-10-11T16:49:00.263Z,17.30
2022-10-11T16:51:26.910Z,17.30
2022-10-11T16:53:53.634Z,17.30
2022-10-11T16:56:22.551Z,17.30
2022-10-11T16:58:49.489Z,17.30
2022-10-11T17:01:16.367Z,17.30
2022-10-11T17:03:44.096Z,17.30
2022-10-11T17:06:10.799Z,17.30
2022-10-11T17:08:37.490Z,17.30
2022-10-11T17:11:04.487Z,17.30
2022-10-11T17:13:31.144Z,17.30
2022-10-11T17:15:58.278Z,17.30
2022-10-11T17:18:25.038Z,17.30
2022-10-11T17:21:03.787Z,17.30
2022-10-11T17:23:30.722Z,17.20
2022-10-11T17:25:57.521Z,17.20
2022-10-11T17:28:24.223Z,17.20
2022-10-11T17:30:57.914Z,17.20
2022-10-11T17:33:28.480Z,17.20
2022-10-11T17:35:56.968Z,17.20
2022-10-11T17:38:27.875Z,17.20
2022-10-11T17:41:02.820Z,17.20
2022-10-11T17:43:30.081Z,17.20
2022-10-11T17:45:58.074Z,17.20
2022-10-11T17:48:26.031Z,17.20
2022-10-11T17:50:53.065Z,17.20
2022-10-11T17:53:19.786Z,17.20
2022-10-11T17:55:47.025Z,17.10
2022-10-11T17:58:13.645Z,17.10
2022-10-11T18:00:40.272Z,17.10
2022-10-11T18:03:07.044Z,17.10
2022-10-11T18:05:33.740Z,17.00
2022-10-11T18:08:00.706Z,17.00
2022-10-11T18:10:27.481Z,17.00
2022-10-11T18:12:54.727Z,17.00
2022-10-11T18:15:21.506Z,17.10
2022-10-11T18:17:48.338Z,17.00
2022-10-11T18:20:15.205Z,17.10
2022-10-11T18:22:41.884Z,17.10
2022-10-11T18:25:09.214Z,17.10
2022-10-11T18:27:36.020Z,17.10
2022-10-11T18:30:02.784Z,17.10
2022-10-11T18:32:29.508Z,17.10
2022-10-11T18:34:57.838Z,17.10
2022-10-11T18:37:24.456Z,17.00
2022-10-11T18:39:51.256Z,17.00
2022-10-11T18:42:17.975Z,17.00
2022-10-11T18:44:44.611Z,17.10
2022-10-11T18:47:11.270Z,17.10
2022-10-11T18:49:38.009Z,17.10
2022-10-11T18:52:04.957Z,17.00
2022-10-11T18:54:31.671Z,17.00
2022-10-11T18:56:58.574Z,17.00
2022-10-11T18:59:25.250Z,17.00
2022-10-11T19:01:52.513Z,16.90
2022-10-11T19:04:20.294Z,16.90
2022-10-11T19:06:48.650Z,16.90
2022-10-11T19:09:24.251Z,16.90
2022-10-11T19:11:52.783Z,16.80
2022-10-11T19:14:21.922Z,16.80
2022-10-11T19:16:51.382Z,16.80
2022-10-11T19:19:20.317Z,16.80
2022-10-11T19:21:48.601Z,16.80
2022-10-11T19:24:20.439Z,16.80
2022-10-11T19:26:48.419Z,16.80
2022-10-11T19:29:20.208Z,16.80
2022-10-11T19:31:59.060Z,16.70
2022-10-11T19:34:27.797Z,16.80
2022-10-11T19:37:00.683Z,16.70
2022-10-11T19:39:28.345Z,16.70
2022-10-11T19:41:55.041Z,16.70
2022-10-11T19:44:21.734Z,16.70
2022-10-11T19:46:52.781Z,16.70
2022-10-11T19:49:22.518Z,16.60
2022-10-11T19:51:49.651Z,16.60
2022-10-11T19:54:16.626Z,16.60
2022-10-11T19:56:44.446Z,16.60
2022-10-11T19:59:12.212Z,16.60
2022-10-11T20:01:39.659Z,16.60
2022-10-11T20:04:08.688Z,16.60
2022-10-11T20:06:38.954Z,16.50
2022-10-11T20:11:54.142Z,16.50
2022-10-11T20:14:21.047Z,16.50
2022-10-11T20:16:49.956Z,16.50
2022-10-11T20:19:17.274Z,16.40
2022-10-11T20:21:44.837Z,16.40
2022-10-11T20:24:11.556Z,16.40
2022-10-11T20:26:38.992Z,16.40
2022-10-11T20:29:06.868Z,16.40
2022-10-11T20:31:37.918Z,16.40
2022-10-11T20:34:07.002Z,16.40
2022-10-11T20:36:35.764Z,16.30
2022-10-11T20:39:02.947Z,16.40
2022-10-11T20:41:31.907Z,16.40
2022-10-11T20:43:59.895Z,16.30
2022-10-11T20:46:29.815Z,16.40
2022-10-11T20:49:01.870Z,16.40
2022-10-11T20:51:33.135Z,16.30
2022-10-11T20:54:00.595Z,16.30
2022-10-11T20:56:27.754Z,16.30
2022-10-11T20:58:56.391Z,16.30
2022-10-11T21:01:26.497Z,16.20
2022-10-11T21:03:53.656Z,16.30
2022-10-11T21:06:20.589Z,16.20
2022-10-11T21:08:47.185Z,16.20
2022-10-11T21:11:14.345Z,16.20
2022-10-11T21:13:41.092Z,16.20
2022-10-11T21:16:11.853Z,16.20
2022-10-11T21:18:38.807Z,16.20
2022-10-11T21:21:12.897Z,16.20
2022-10-11T21:23:40.082Z,16.20
2022-10-11T21:26:09.107Z,16.20
2022-10-11T21:28:35.800Z,16.20
2022-10-11T21:31:04.538Z,16.10
2022-10-11T21:33:31.261Z,16.20
2022-10-11T21:35:57.844Z,16.10
2022-10-11T21:38:24.548Z,16.10
2022-10-11T21:40:51.687Z,16.10
2022-10-11T21:43:18.291Z,16.10
2022-10-11T21:45:45.751Z,16.10
2022-10-11T21:48:12.458Z,16.10
2022-10-11T21:50:39.262Z,16.10
2022-10-11T21:53:05.902Z,16.00
2022-10-11T21:55:32.516Z,16.00
2022-10-11T21:57:59.074Z,16.00
2022-10-11T22:00:25.659Z,16.10
2022-10-11T22:02:52.529Z,16.00
2022-10-11T22:05:19.193Z,16.00
2022-10-11T22:07:45.809Z,16.00
2022-10-11T22:10:12.417Z,16.00
2022-10-11T22:12:39.022Z,16.00
2022-10-11T22:15:06.263Z,16.00
2022-10-11T22:17:32.856Z,16.00
2022-10-11T22:19:59.453Z,15.90
2022-10-11T22:22:26.088Z,15.90
2022-10-11T22:24:52.657Z,15.90
2022-10-11T22:27:19.368Z,15.90
2022-10-11T22:29:45.984Z,15.90
2022-10-11T22:32:12.721Z,15.90
2022-10-11T22:34:39.333Z,15.90
2022-10-11T22:37:05.918Z,15.90
2022-10-11T22:39:32.536Z,15.80
2022-10-11T22:41:59.174Z,15.80
2022-10-11T22:44:25.757Z,15.80
2022-10-11T22:46:52.471Z,15.80
2022-10-11T22:49:19.088Z,15.80
2022-10-11T22:51:45.728Z,15.80
2022-10-11T22:54:12.424Z,15.70
2022-10-11T22:56:39.029Z,15.80
2022-10-11T22:59:05.670Z,15.70
2022-10-11T23:01:32.394Z,15.80
2022-10-11T23:03:59.363Z,15.80
2022-10-11T23:06:26.048Z,15.80
2022-10-11T23:08:52.732Z,15.80
2022-10-11T23:11:19.456Z,15.70
2022-10-11T23:13:46.090Z,15.70
2022-10-11T23:16:13.408Z,15.70
2022-10-11T23:18:40.242Z,15.70
2022-10-11T23:21:07.775Z,15.70
2022-10-11T23:23:34.540Z,15.70
2022-10-11T23:26:06.885Z,15.60
2022-10-11T23:28:34.189Z,15.70
2022-10-11T23:31:05.220Z,15.70
2022-10-11T23:33:31.801Z,15.60
2022-10-11T23:35:58.489Z,15.60
2022-10-11T23:38:25.155Z,15.60
2022-10-11T23:40:51.739Z,15.60
2022-10-11T23:43:18.388Z,15.60
2022-10-11T23:45:45.114Z,15.50
2022-10-11T23:48:11.893Z,15.50
2022-10-11T23:50:38.529Z,15.50
2022-10-11T23:53:05.277Z,15.50
2022-10-11T23:55:32.523Z,15.50
2022-10-11T23:57:59.213Z,15.50
